Time;durP1;ratioP1;P1;durP2;ratioP2;P2;SDS_P1;SDS_P2;PMS_P1;PMS_P2;Temp;Humidity;BMP_temperature;BMP_pressure;BME280_temperature;BME280_humidity;BME280_pressure;Samples;Min_cycle;Max_cycle;Signal;HPM_P1;HPM_P2
2023/07/17 00:00:29;;;;;;;;;;;30.80;64.80;;;;;;5113492;27;43470;-79
2023/07/17 00:02:55;;;;;;;;;;;30.80;65.30;;;;;;5110768;27;42912;-77
2023/07/17 00:05:21;;;;;;;;;;;30.80;65.20;;;;;;5117593;27;43522;-78
2023/07/17 00:07:46;;;;;;;;;;;30.70;65.20;;;;;;5126411;27;43055;-78
2023/07/17 00:10:12;;;;;;;;;;;30.80;64.60;;;;;;5124525;27;43721;-78
2023/07/17 00:12:38;;;;;;;;;;;30.80;64.70;;;;;;5125191;27;42853;-77
2023/07/17 00:15:06;;;;;;;;;;;30.70;64.90;;;;;;5123377;27;43069;-78
2023/07/17 00:17:32;;;;;;;;;;;30.70;65.40;;;;;;5125961;27;42940;-78
2023/07/17 00:19:58;;;;;;;;;;;30.70;64.50;;;;;;5120109;27;43464;-79
2023/07/17 00:22:24;;;;;;;;;;;30.70;64.30;;;;;;5115336;27;43187;-77
2023/07/17 00:24:50;;;;;;;;;;;30.70;64.40;;;;;;5121463;27;43876;-78
2023/07/17 00:27:16;;;;;;;;;;;30.70;65.00;;;;;;5125754;27;43196;-78
2023/07/17 00:29:43;;;;;;;;;;;30.70;65.00;;;;;;5125491;27;43209;-77
2023/07/17 00:32:13;;;;;;;;;;;30.70;65.10;;;;;;5125476;27;43277;-77
2023/07/17 00:34:39;;;;;;;;;;;30.70;65.20;;;;;;5126333;27;42987;-78
2023/07/17 00:37:04;;;;;;;;;;;30.60;64.80;;;;;;5125237;27;42943;-78
2023/07/17 00:39:30;;;;;;;;;;;30.60;64.80;;;;;;5124924;27;42903;-78
2023/07/17 00:41:55;;;;;;;;;;;30.70;65.40;;;;;;5126173;27;42996;-78
2023/07/17 00:44:21;;;;;;;;;;;30.70;64.70;;;;;;5126314;27;43665;-78
2023/07/17 00:46:47;;;;;;;;;;;30.70;65.30;;;;;;5126716;27;42927;-78
2023/07/17 00:49:13;;;;;;;;;;;30.70;65.20;;;;;;5106465;27;43739;-78
2023/07/17 00:51:39;;;;;;;;;;;30.70;64.40;;;;;;5126503;27;42940;-79
2023/07/17 00:54:05;;;;;;;;;;;30.70;64.40;;;;;;5122690;27;43664;-78
2023/07/17 00:56:31;;;;;;;;;;;30.70;64.50;;;;;;5117554;27;43110;-78
2023/07/17 00:58:57;;;;;;;;;;;30.70;64.90;;;;;;5125477;27;43593;-78
2023/07/17 01:01:23;;;;;;;;;;;30.70;64.70;;;;;;5125318;27;43022;-78
2023/07/17 01:03:50;;;;;;;;;;;30.70;64.50;;;;;;5126679;27;42867;-78
2023/07/17 01:06:16;;;;;;;;;;;30.70;63.90;;;;;;5107290;27;43231;-78
2023/07/17 01:08:42;;;;;;;;;;;30.70;63.80;;;;;;5126721;27;43108;-78
2023/07/17 01:11:08;;;;;;;;;;;30.70;63.80;;;;;;5124062;27;42965;-79
2023/07/17 01:13:53;;;;;;;;;;;30.70;64.30;;;;;;5125555;27;43603;-78
2023/07/17 01:16:19;;;;;;;;;;;30.70;63.80;;;;;;5124134;27;43770;-78
2023/07/17 01:18:44;;;;;;;;;;;30.70;63.80;;;;;;5106614;27;44458;-78
2023/07/17 01:21:12;;;;;;;;;;;30.70;64.30;;;;;;5125622;27;42890;-78
2023/07/17 01:23:38;;;;;;;;;;;30.70;64.10;;;;;;5125295;27;43622;-78
2023/07/17 01:26:13;;;;;;;;;;;30.70;63.60;;;;;;5125712;27;43058;-78
2023/07/17 01:28:39;;;;;;;;;;;30.70;64.10;;;;;;5138514;27;43557;-78
2023/07/17 01:31:04;;;;;;;;;;;30.60;63.50;;;;;;5124673;27;43141;-78
2023/07/17 01:33:30;;;;;;;;;;;30.70;63.50;;;;;;5139392;27;43779;-78
2023/07/17 01:35:55;;;;;;;;;;;30.60;63.40;;;;;;5126914;27;43002;-79
2023/07/17 01:38:21;;;;;;;;;;;30.70;63.60;;;;;;5132184;27;42771;-77
2023/07/17 01:40:46;;;;;;;;;;;30.70;64.10;;;;;;5146723;27;43176;-78
2023/07/17 01:43:12;;;;;;;;;;;30.60;63.60;;;;;;5126877;27;43831;-78
2023/07/17 01:45:37;;;;;;;;;;;30.60;63.70;;;;;;5142735;27;42911;-78
2023/07/17 01:48:03;;;;;;;;;;;30.60;64.30;;;;;;5133053;27;42995;-78
2023/07/17 01:50:28;;;;;;;;;;;30.70;65.00;;;;;;5134017;27;42982;-78
2023/07/17 01:52:54;;;;;;;;;;;30.70;63.70;;;;;;5125256;27;43157;-78
2023/07/17 01:55:19;;;;;;;;;;;30.70;64.30;;;;;;5139230;27;43619;-78
2023/07/17 01:57:45;;;;;;;;;;;30.60;63.50;;;;;;5140484;27;42920;-78
2023/07/17 02:00:12;;;;;;;;;;;30.70;63.50;;;;;;5139218;27;42974;-78
2023/07/17 02:02:38;;;;;;;;;;;30.70;63.70;;;;;;5141576;27;43768;-77
2023/07/17 02:05:03;;;;;;;;;;;30.60;63.60;;;;;;5138349;27;42994;-78
2023/07/17 02:07:29;;;;;;;;;;;30.70;64.20;;;;;;5138047;27;42946;-76
2023/07/17 02:09:54;;;;;;;;;;;30.60;63.70;;;;;;5138935;27;43383;-77
2023/07/17 02:12:20;;;;;;;;;;;30.60;63.50;;;;;;5143873;27;43782;-77
2023/07/17 02:14:45;;;;;;;;;;;30.70;63.50;;;;;;5139591;27;42945;-78
2023/07/17 02:17:11;;;;;;;;;;;30.70;63.50;;;;;;5143938;27;42917;-78
2023/07/17 02:19:37;;;;;;;;;;;30.60;63.50;;;;;;5140287;27;42977;-79
2023/07/17 02:22:02;;;;;;;;;;;30.60;63.50;;;;;;5145507;27;43002;-79
2023/07/17 02:24:28;;;;;;;;;;;30.70;64.20;;;;;;5145701;27;43027;-78
2023/07/17 02:26:53;;;;;;;;;;;30.70;63.80;;;;;;5143725;27;44033;-78
2023/07/17 02:29:19;;;;;;;;;;;30.60;64.30;;;;;;5144780;27;43001;-78
2023/07/17 02:31:45;;;;;;;;;;;30.70;64.30;;;;;;5126311;27;44831;-78
2023/07/17 02:34:10;;;;;;;;;;;30.60;63.80;;;;;;5145152;27;43134;-79
2023/07/17 02:36:37;;;;;;;;;;;30.60;63.80;;;;;;5144755;27;43554;-77
2023/07/17 02:39:04;;;;;;;;;;;30.60;63.70;;;;;;5143562;27;42952;-78
2023/07/17 02:41:29;;;;;;;;;;;30.60;63.70;;;;;;5145600;27;42946;-79
2023/07/17 02:43:55;;;;;;;;;;;30.60;64.20;;;;;;5132667;27;42940;-77
2023/07/17 02:46:20;;;;;;;;;;;30.60;64.10;;;;;;5142967;27;43840;-77
2023/07/17 02:48:46;;;;;;;;;;;30.60;63.50;;;;;;5146231;27;42962;-78
2023/07/17 02:51:12;;;;;;;;;;;30.60;63.30;;;;;;5127958;27;42955;-77
2023/07/17 02:53:37;;;;;;;;;;;30.60;63.30;;;;;;5125220;27;43098;-77
2023/07/17 02:56:03;;;;;;;;;;;30.60;63.30;;;;;;5129355;27;42904;-78
2023/07/17 02:58:28;;;;;;;;;;;30.60;63.90;;;;;;5145438;27;43122;-78
2023/07/17 03:00:54;;;;;;;;;;;30.60;63.80;;;;;;5142923;27;43065;-78
2023/07/17 03:03:20;;;;;;;;;;;30.60;64.00;;;;;;5145133;27;43038;-77
2023/07/17 03:05:45;;;;;;;;;;;30.60;63.50;;;;;;5148826;27;43082;-78
2023/07/17 03:08:11;;;;;;;;;;;30.60;63.40;;;;;;5138285;27;42968;-78
2023/07/17 03:10:36;;;;;;;;;;;30.60;63.30;;;;;;5128078;27;43074;-77
2023/07/17 03:13:02;;;;;;;;;;;30.60;63.90;;;;;;5128339;27;42934;-78
2023/07/17 03:15:27;;;;;;;;;;;30.60;63.90;;;;;;5139119;27;43643;-78
2023/07/17 03:17:53;;;;;;;;;;;30.60;63.40;;;;;;5138895;27;42933;-78
2023/07/17 03:20:18;;;;;;;;;;;30.60;64.00;;;;;;5146733;27;43648;-77
2023/07/17 03:22:44;;;;;;;;;;;30.50;63.20;;;;;;5128008;27;43074;-78
2023/07/17 03:25:09;;;;;;;;;;;30.60;63.30;;;;;;5143721;27;43582;-78
2023/07/17 03:27:35;;;;;;;;;;;30.50;63.20;;;;;;5148436;27;42976;-76
2023/07/17 03:30:01;;;;;;;;;;;30.60;63.90;;;;;;5144908;27;44239;-76
2023/07/17 03:32:26;;;;;;;;;;;30.50;63.20;;;;;;5148738;27;42826;-77
2023/07/17 03:34:52;;;;;;;;;;;30.50;63.80;;;;;;5147189;27;43032;-78
2023/07/17 03:37:17;;;;;;;;;;;30.50;63.80;;;;;;5149442;27;42886;-79
2023/07/17 03:39:43;;;;;;;;;;;30.50;63.20;;;;;;5147120;27;44670;-78
2023/07/17 03:42:11;;;;;;;;;;;30.50;63.20;;;;;;5148021;27;43138;-77
2023/07/17 03:44:37;;;;;;;;;;;30.50;63.20;;;;;;5143612;27;42982;-77
2023/07/17 03:47:03;;;;;;;;;;;30.50;63.10;;;;;;5129137;27;42974;-78
2023/07/17 03:49:29;;;;;;;;;;;30.40;63.00;;;;;;5130059;27;44553;-78
2023/07/17 03:51:54;;;;;;;;;;;30.50;63.10;;;;;;5127443;27;43095;-78
2023/07/17 03:54:20;;;;;;;;;;;30.40;63.60;;;;;;5127100;27;43134;-77
2023/07/17 03:56:45;;;;;;;;;;;30.50;63.60;;;;;;5129725;27;43085;-78
2023/07/17 03:59:11;;;;;;;;;;;30.40;63.50;;;;;;5128577;27;43639;-78
2023/07/17 04:01:36;;;;;;;;;;;30.40;62.80;;;;;;5136410;27;42908;-78
2023/07/17 04:04:03;;;;;;;;;;;30.40;63.40;;;;;;5125713;27;44080;-78
2023/07/17 04:06:29;;;;;;;;;;;30.40;63.40;;;;;;5108307;27;42995;-78
2023/07/17 04:08:54;;;;;;;;;;;30.40;63.40;;;;;;5127005;27;43593;-78
2023/07/17 04:11:20;;;;;;;;;;;30.40;62.90;;;;;;5126749;27;42897;-78
2023/07/17 04:13:45;;;;;;;;;;;30.40;63.40;;;;;;5141411;27;43725;-77
2023/07/17 04:16:12;;;;;;;;;;;30.40;63.40;;;;;;5137199;27;42993;-77
2023/07/17 04:18:38;;;;;;;;;;;30.40;62.80;;;;;;5127177;27;43547;-78
2023/07/17 04:21:03;;;;;;;;;;;30.40;63.30;;;;;;5127204;27;42944;-78
2023/07/17 04:23:29;;;;;;;;;;;30.40;62.80;;;;;;5143074;27;43537;-77
2023/07/17 04:25:54;;;;;;;;;;;30.40;62.80;;;;;;5138839;27;43330;-78
2023/07/17 04:28:20;;;;;;;;;;;30.40;62.70;;;;;;5124452;27;43073;-78
2023/07/17 04:30:45;;;;;;;;;;;30.40;63.30;;;;;;5124483;27;42900;-78
2023/07/17 04:33:11;;;;;;;;;;;30.40;62.50;;;;;;5125751;27;43028;-77
2023/07/17 04:35:37;;;;;;;;;;;30.40;63.10;;;;;;5123062;27;42999;-78
2023/07/17 04:38:03;;;;;;;;;;;30.40;63.10;;;;;;5121843;27;43906;-78
2023/07/17 04:40:29;;;;;;;;;;;30.40;62.50;;;;;;5105731;27;43012;-76
2023/07/17 04:42:54;;;;;;;;;;;30.40;63.10;;;;;;5126042;27;42987;-78
2023/07/17 04:45:20;;;;;;;;;;;30.40;62.70;;;;;;5126494;27;43148;-78
2023/07/17 04:47:45;;;;;;;;;;;30.40;63.20;;;;;;5124873;27;42920;-78
2023/07/17 04:50:11;;;;;;;;;;;30.40;62.70;;;;;;5123005;27;43217;-76
2023/07/17 04:52:37;;;;;;;;;;;30.40;63.30;;;;;;5125958;27;42995;-78
2023/07/17 04:55:02;;;;;;;;;;;30.30;62.70;;;;;;5126216;27;42910;-78
2023/07/17 04:57:28;;;;;;;;;;;30.40;62.80;;;;;;5114095;27;44906;-78
2023/07/17 04:59:53;;;;;;;;;;;30.30;62.60;;;;;;5116643;27;43200;-78
2023/07/17 05:02:19;;;;;;;;;;;30.40;62.70;;;;;;5124816;27;44301;-77
2023/07/17 05:04:45;;;;;;;;;;;30.30;62.60;;;;;;5126146;27;42860;-78
2023/07/17 05:07:10;;;;;;;;;;;30.40;62.70;;;;;;5125525;27;43721;-76
2023/07/17 05:09:36;;;;;;;;;;;30.40;63.10;;;;;;5125175;27;43047;-78
2023/07/17 05:12:01;;;;;;;;;;;30.40;62.40;;;;;;5124128;27;43060;-78
2023/07/17 05:14:27;;;;;;;;;;;30.40;62.40;;;;;;5114656;27;42981;-78
2023/07/17 05:16:52;;;;;;;;;;;30.40;62.30;;;;;;5120851;27;43049;-80
2023/07/17 05:19:18;;;;;;;;;;;30.40;62.80;;;;;;5123927;27;43131;-78
2023/07/17 05:21:43;;;;;;;;;;;30.40;62.30;;;;;;5114776;27;43609;-77
2023/07/17 05:24:09;;;;;;;;;;;30.40;62.70;;;;;;5119142;27;43532;-79
2023/07/17 05:26:34;;;;;;;;;;;30.40;62.00;;;;;;5120176;27;43113;-79
2023/07/17 05:29:00;;;;;;;;;;;30.40;62.00;;;;;;5133564;27;43137;-78
2023/07/17 05:31:25;;;;;;;;;;;30.40;62.60;;;;;;5146659;27;43151;-78
2023/07/17 05:33:52;;;;;;;;;;;30.40;62.00;;;;;;5136108;27;43005;-78
2023/07/17 05:36:17;;;;;;;;;;;30.40;62.60;;;;;;5142594;27;44000;-79
2023/07/17 05:38:43;;;;;;;;;;;30.40;62.20;;;;;;5126096;27;42956;-77
2023/07/17 05:41:08;;;;;;;;;;;30.40;62.20;;;;;;5140415;27;43001;-78
2023/07/17 05:43:34;;;;;;;;;;;30.40;62.20;;;;;;5138855;27;42974;-78
2023/07/17 05:46:00;;;;;;;;;;;30.40;62.20;;;;;;5134660;27;44321;-78
2023/07/17 05:48:25;;;;;;;;;;;30.40;62.80;;;;;;5140609;27;43015;-79
2023/07/17 05:50:51;;;;;;;;;;;30.40;62.60;;;;;;5145105;27;43033;-78
2023/07/17 05:53:16;;;;;;;;;;;30.50;62.60;;;;;;5133033;27;42916;-78
2023/07/17 05:55:43;;;;;;;;;;;30.40;62.50;;;;;;5125794;27;43490;-78
2023/07/17 05:58:08;;;;;;;;;;;30.40;62.40;;;;;;5139388;27;42896;-78
2023/07/17 06:00:34;;;;;;;;;;;30.40;61.80;;;;;;5138763;27;43629;-78
2023/07/17 06:02:59;;;;;;;;;;;30.40;61.90;;;;;;5138388;27;43012;-79
2023/07/17 06:05:25;;;;;;;;;;;30.30;61.80;;;;;;5136822;27;44849;-78
2023/07/17 06:07:50;;;;;;;;;;;30.40;62.50;;;;;;5122620;27;42971;-81
2023/07/17 06:10:16;;;;;;;;;;;30.40;62.70;;;;;;5134370;27;43954;-83
2023/07/17 06:12:42;;;;;;;;;;;30.40;62.60;;;;;;5109360;27;42936;-83
2023/07/17 06:15:08;;;;;;;;;;;30.40;62.00;;;;;;5132372;27;43047;-84
2023/07/17 06:17:33;;;;;;;;;;;30.30;61.90;;;;;;5140269;27;42992;-83
2023/07/17 06:19:59;;;;;;;;;;;30.40;62.60;;;;;;5117060;27;43581;-81
2023/07/17 06:22:24;;;;;;;;;;;30.40;62.60;;;;;;5125341;27;42792;-78
2023/07/17 06:24:50;;;;;;;;;;;30.40;62.20;;;;;;5128162;27;42945;-80
2023/07/17 06:27:15;;;;;;;;;;;30.40;62.90;;;;;;5138320;27;42989;-83
2023/07/17 06:29:43;;;;;;;;;;;30.40;63.10;;;;;;5144632;27;64256;-85
2023/07/17 06:32:08;;;;;;;;;;;30.40;63.10;;;;;;5144206;27;42950;-77
2023/07/17 06:34:34;;;;;;;;;;;30.30;62.30;;;;;;5134047;27;43753;-79
2023/07/17 06:37:00;;;;;;;;;;;30.30;62.30;;;;;;5142351;27;42982;-84
2023/07/17 06:39:26;;;;;;;;;;;30.40;63.10;;;;;;5147584;27;43557;-82
2023/07/17 06:41:52;;;;;;;;;;;30.40;62.60;;;;;;5135932;27;43103;-79
2023/07/17 06:44:18;;;;;;;;;;;30.40;62.70;;;;;;5129209;27;43089;-84
2023/07/17 06:46:43;;;;;;;;;;;30.40;63.20;;;;;;5133175;27;43004;-86
2023/07/17 06:49:09;;;;;;;;;;;30.40;62.50;;;;;;5144210;27;43622;-76
2023/07/17 06:51:34;;;;;;;;;;;30.40;63.40;;;;;;5149941;27;42980;-84
2023/07/17 06:54:00;;;;;;;;;;;30.40;63.30;;;;;;5143070;27;42965;-78
2023/07/17 06:56:25;;;;;;;;;;;30.40;62.70;;;;;;5138540;27;42893;-78
2023/07/17 06:58:51;;;;;;;;;;;29.30;61.90;;;;;;5128015;27;42944;-85
2023/07/17 07:01:16;;;;;;;;;;;30.40;62.50;;;;;;5137433;27;42986;-83
2023/07/17 07:03:43;;;;;;;;;;;30.40;62.50;;;;;;5141043;27;42965;-80
2023/07/17 07:06:09;;;;;;;;;;;30.40;63.10;;;;;;5144685;27;43077;-82
2023/07/17 07:08:34;;;;;;;;;;;30.40;62.50;;;;;;5146494;27;43152;-82
2023/07/17 07:11:00;;;;;;;;;;;30.40;63.10;;;;;;5146860;27;42956;-81
2023/07/17 07:13:26;;;;;;;;;;;30.40;62.50;;;;;;5146826;27;43030;-85
2023/07/17 07:15:52;;;;;;;;;;;30.40;63.30;;;;;;5142296;27;43240;-81
2023/07/17 07:18:18;;;;;;;;;;;30.40;63.10;;;;;;5138465;27;43694;-78
2023/07/17 07:20:44;;;;;;;;;;;30.40;63.10;;;;;;5145889;27;43102;-76
2023/07/17 07:23:09;;;;;;;;;;;30.40;62.80;;;;;;5136183;27;43213;-77
2023/07/17 07:25:35;;;;;;;;;;;30.40;62.70;;;;;;5139407;27;42962;-77
2023/07/17 07:28:00;;;;;;;;;;;30.40;62.60;;;;;;5138362;27;43946;-77
2023/07/17 07:30:27;;;;;;;;;;;30.40;62.50;;;;;;5138155;27;42786;-76
2023/07/17 07:32:52;;;;;;;;;;;30.50;63.30;;;;;;5141301;27;43015;-76
2023/07/17 07:35:18;;;;;;;;;;;30.40;63.20;;;;;;5138479;27;42974;-74
2023/07/17 07:37:43;;;;;;;;;;;30.40;63.20;;;;;;5137982;27;43549;-77
2023/07/17 07:40:11;;;;;;;;;;;30.40;63.20;;;;;;5141647;27;43022;-78
2023/07/17 07:42:40;;;;;;;;;;;30.40;62.60;;;;;;5138157;27;43053;-78
2023/07/17 07:45:05;;;;;;;;;;;30.40;63.20;;;;;;5137570;27;42920;-77
2023/07/17 07:47:32;;;;;;;;;;;30.40;63.40;;;;;;5138230;27;42928;-76
2023/07/17 07:49:57;;;;;;;;;;;30.40;62.90;;;;;;5146266;27;42995;-77
2023/07/17 07:52:23;;;;;;;;;;;30.40;62.80;;;;;;5147846;27;43056;-86
2023/07/17 07:54:48;;;;;;;;;;;30.50;62.80;;;;;;5128531;27;42827;-75
2023/07/17 07:57:14;;;;;;;;;;;30.50;63.50;;;;;;5149280;27;43671;-75
2023/07/17 07:59:39;;;;;;;;;;;30.50;62.80;;;;;;5149288;27;42782;-76
2023/07/17 08:02:06;;;;;;;;;;;30.40;62.60;;;;;;5130345;27;44130;-76
2023/07/17 08:04:31;;;;;;;;;;;30.50;63.20;;;;;;5149452;27;42933;-75
2023/07/17 08:06:57;;;;;;;;;;;30.40;62.50;;;;;;5149114;27;42943;-77
2023/07/17 08:09:22;;;;;;;;;;;30.50;63.20;;;;;;5149435;27;42855;-76
2023/07/17 08:11:48;;;;;;;;;;;30.50;63.10;;;;;;5149071;27;42965;-76
2023/07/17 08:14:13;;;;;;;;;;;30.50;63.20;;;;;;5149297;27;43042;-76
2023/07/17 08:16:39;;;;;;;;;;;30.50;63.20;;;;;;5149030;27;42770;-76
2023/07/17 08:19:04;;;;;;;;;;;30.50;63.10;;;;;;5149185;27;43345;-75
2023/07/17 08:21:30;;;;;;;;;;;30.50;63.10;;;;;;5148972;27;43378;-75
2023/07/17 08:23:55;;;;;;;;;;;30.50;62.50;;;;;;5149448;27;42857;-76
2023/07/17 08:26:21;;;;;;;;;;;30.50;62.50;;;;;;5148815;27;43549;-76
2023/07/17 08:28:46;;;;;;;;;;;30.50;63.00;;;;;;5149328;27;42765;-76
2023/07/17 08:31:12;;;;;;;;;;;30.50;62.40;;;;;;5148807;27;43589;-76
2023/07/17 08:33:38;;;;;;;;;;;30.60;63.10;;;;;;5148291;27;42928;-76
2023/07/17 08:36:03;;;;;;;;;;;30.60;63.10;;;;;;5148628;27;43419;-76
2023/07/17 08:38:29;;;;;;;;;;;30.50;62.90;;;;;;5148771;27;42909;-75
2023/07/17 08:40:55;;;;;;;;;;;30.50;62.90;;;;;;5148956;27;43750;-76
2023/07/17 08:43:23;;;;;;;;;;;30.60;62.40;;;;;;5149073;27;43070;-75
2023/07/17 08:45:50;;;;;;;;;;;30.60;62.90;;;;;;5148671;27;43656;-76
2023/07/17 08:48:16;;;;;;;;;;;30.60;62.90;;;;;;5148850;27;42903;-76
2023/07/17 08:50:42;;;;;;;;;;;30.60;62.90;;;;;;5148612;27;42833;-75
2023/07/17 08:53:08;;;;;;;;;;;30.60;62.90;;;;;;5148441;27;42927;-76
2023/07/17 08:55:33;;;;;;;;;;;30.60;62.40;;;;;;5148769;27;43606;-75
2023/07/17 08:58:01;;;;;;;;;;;30.60;62.90;;;;;;5148253;27;42880;-75
2023/07/17 09:00:27;;;;;;;;;;;30.60;62.90;;;;;;5148052;27;42833;-76
2023/07/17 09:02:53;;;;;;;;;;;30.60;62.80;;;;;;5148442;27;42867;-75
2023/07/17 09:05:18;;;;;;;;;;;30.60;62.80;;;;;;5147069;27;42795;-77
2023/07/17 09:07:44;;;;;;;;;;;30.60;62.30;;;;;;5148268;27;42949;-76
2023/07/17 09:10:13;;;;;;;;;;;30.60;62.90;;;;;;5128791;27;44614;-76
2023/07/17 09:12:40;;;;;;;;;;;30.60;62.80;;;;;;5148736;27;42786;-75
2023/07/17 09:15:06;;;;;;;;;;;30.60;62.30;;;;;;5148129;27;42915;-74
2023/07/17 09:17:32;;;;;;;;;;;30.60;62.20;;;;;;5129467;27;43007;-75
2023/07/17 09:20:10;;;;;;;;;;;30.60;62.20;;;;;;5148225;27;42919;-76
2023/07/17 09:22:38;;;;;;;;;;;30.60;62.20;;;;;;5148018;27;42931;-76
2023/07/17 09:25:05;;;;;;;;;;;30.60;62.70;;;;;;5148083;27;42940;-75
2023/07/17 09:27:37;;;;;;;;;;;30.60;62.70;;;;;;5147863;27;43033;-75
2023/07/17 09:30:11;;;;;;;;;;;30.60;62.80;;;;;;5147552;27;42926;-75
2023/07/17 09:32:36;;;;;;;;;;;30.60;62.70;;;;;;5147606;27;42967;-74
2023/07/17 09:35:04;;;;;;;;;;;30.60;62.20;;;;;;5147546;27;43048;-74
2023/07/17 09:37:32;;;;;;;;;;;30.60;62.20;;;;;;5147685;27;43010;-76
2023/07/17 09:39:58;;;;;;;;;;;30.60;62.20;;;;;;5147998;27;43549;-77
2023/07/17 09:42:24;;;;;;;;;;;30.70;62.80;;;;;;5147926;27;43041;-75
2023/07/17 09:44:53;;;;;;;;;;;30.60;62.10;;;;;;5147865;27;43370;-75
2023/07/17 09:47:19;;;;;;;;;;;30.70;62.70;;;;;;5147845;27;42950;-76
2023/07/17 09:49:47;;;;;;;;;;;30.60;62.10;;;;;;5147476;27;42994;-75
2023/07/17 09:52:12;;;;;;;;;;;30.70;62.70;;;;;;5147603;27;43029;-76
2023/07/17 09:54:39;;;;;;;;;;;30.60;62.70;;;;;;5147641;27;43503;-76
2023/07/17 09:57:05;;;;;;;;;;;30.60;62.10;;;;;;5147370;27;42957;-77
2023/07/17 09:59:35;;;;;;;;;;;30.60;62.60;;;;;;5147387;27;42885;-76
2023/07/17 10:02:02;;;;;;;;;;;30.70;62.80;;;;;;5147252;27;43089;-76
2023/07/17 10:04:33;;;;;;;;;;;30.60;62.60;;;;;;5147147;27;42843;-76
2023/07/17 10:06:59;;;;;;;;;;;30.60;62.10;;;;;;5147543;27;42969;-75
2023/07/17 10:09:25;;;;;;;;;;;30.60;62.60;;;;;;5147620;27;43816;-76
2023/07/17 10:11:51;;;;;;;;;;;30.70;62.60;;;;;;5147681;27;42866;-76
2023/07/17 10:14:17;;;;;;;;;;;30.60;62.50;;;;;;5146494;27;43488;-76
2023/07/17 10:16:42;;;;;;;;;;;30.70;62.60;;;;;;5147106;27;42916;-76
2023/07/17 10:19:08;;;;;;;;;;;30.60;62.50;;;;;;5146897;27;42954;-76
2023/07/17 10:21:34;;;;;;;;;;;30.60;62.00;;;;;;5146966;27;42952;-76
2023/07/17 10:24:05;;;;;;;;;;;30.60;62.00;;;;;;5146764;27;43668;-75
2023/07/17 10:26:31;;;;;;;;;;;30.60;62.00;;;;;;5146878;27;42906;-76
2023/07/17 10:28:57;;;;;;;;;;;30.70;62.00;;;;;;5146703;27;43010;-76
2023/07/17 10:31:25;;;;;;;;;;;30.60;62.50;;;;;;5147143;27;42918;-76
2023/07/17 10:34:09;;;;;;;;;;;30.70;62.50;;;;;;5146892;27;43487;-75
2023/07/17 10:36:39;;;;;;;;;;;30.70;62.50;;;;;;5147117;27;42974;-76
2023/07/17 10:39:05;;;;;;;;;;;30.70;62.00;;;;;;5146059;27;43795;-75
2023/07/17 10:41:30;;;;;;;;;;;30.70;62.00;;;;;;5146260;27;43063;-75
2023/07/17 10:43:57;;;;;;;;;;;30.60;61.90;;;;;;5147136;27;42885;-75
2023/07/17 10:46:29;;;;;;;;;;;30.70;62.50;;;;;;5147397;27;43044;-76
2023/07/17 10:49:08;;;;;;;;;;;30.70;62.50;;;;;;5145652;27;43074;-76
2023/07/17 10:51:33;;;;;;;;;;;30.70;62.50;;;;;;5147003;27;43192;-76
2023/07/17 10:53:59;;;;;;;;;;;30.70;62.00;;;;;;5146724;27;44019;-76
2023/07/17 10:56:25;;;;;;;;;;;30.70;62.50;;;;;;5146498;27;42987;-75
2023/07/17 10:58:51;;;;;;;;;;;30.70;62.50;;;;;;5146695;27;43411;-76
2023/07/17 11:01:16;;;;;;;;;;;30.70;62.50;;;;;;5146504;27;42970;-75
2023/07/17 11:03:47;;;;;;;;;;;30.70;62.50;;;;;;5146384;27;42858;-76
2023/07/17 11:06:16;;;;;;;;;;;30.70;62.50;;;;;;5146703;27;42981;-76
2023/07/17 11:08:42;;;;;;;;;;;30.70;62.50;;;;;;5145434;27;43030;-76
2023/07/17 11:11:10;;;;;;;;;;;30.70;62.00;;;;;;5146613;27;42931;-75
2023/07/17 11:13:36;;;;;;;;;;;30.70;62.50;;;;;;5146114;27;42976;-75
2023/07/17 11:16:06;;;;;;;;;;;30.70;62.60;;;;;;5146930;27;42859;-75
2023/07/17 11:18:31;;;;;;;;;;;30.70;61.90;;;;;;5146427;27;43263;-75
2023/07/17 11:20:57;;;;;;;;;;;30.70;62.50;;;;;;5146334;27;42975;-74
2023/07/17 11:23:22;;;;;;;;;;;30.70;61.90;;;;;;5146428;27;43376;-76
2023/07/17 11:25:49;;;;;;;;;;;30.70;62.50;;;;;;5149500;27;42923;-75
2023/07/17 11:28:14;;;;;;;;;;;30.70;62.00;;;;;;5149364;27;42955;-75
2023/07/17 11:30:40;;;;;;;;;;;30.70;62.40;;;;;;5150148;27;43006;-76
2023/07/17 11:33:07;;;;;;;;;;;30.70;62.50;;;;;;5149674;27;42985;-75
2023/07/17 11:35:38;;;;;;;;;;;30.60;61.80;;;;;;5150176;27;42984;-75
2023/07/17 11:38:09;;;;;;;;;;;30.70;62.40;;;;;;5149728;27;43027;-75
2023/07/17 11:40:50;;;;;;;;;;;30.70;62.40;;;;;;5149272;27;42960;-76
2023/07/17 11:43:22;;;;;;;;;;;30.40;62.20;;;;;;5149344;27;43078;-76
2023/07/17 11:45:47;;;;;;;;;;;30.70;61.90;;;;;;5149262;27;42980;-75
2023/07/17 11:48:13;;;;;;;;;;;30.70;61.90;;;;;;5149770;27;42923;-76
2023/07/17 11:50:40;;;;;;;;;;;30.70;62.50;;;;;;5149853;27;42942;-76
2023/07/17 11:53:06;;;;;;;;;;;30.70;62.50;;;;;;5149847;27;43674;-76
2023/07/17 11:55:35;;;;;;;;;;;30.70;62.00;;;;;;5149784;27;42982;-76
2023/07/17 11:58:00;;;;;;;;;;;30.70;62.40;;;;;;5130041;27;43560;-76
2023/07/17 12:00:26;;;;;;;;;;;30.70;61.90;;;;;;5149030;27;42982;-77
2023/07/17 12:02:52;;;;;;;;;;;30.70;62.50;;;;;;5148342;27;43495;-76
2023/07/17 12:05:17;;;;;;;;;;;30.70;61.90;;;;;;5149021;27;42879;-75
2023/07/17 12:07:43;;;;;;;;;;;30.70;61.90;;;;;;5148629;27;44343;-76
2023/07/17 12:10:09;;;;;;;;;;;30.70;62.50;;;;;;5149431;27;42864;-76
2023/07/17 12:12:35;;;;;;;;;;;30.70;61.90;;;;;;5129983;27;43063;-76
2023/07/17 12:15:01;;;;;;;;;;;30.70;62.50;;;;;;5147839;27;42980;-76
2023/07/17 12:17:26;;;;;;;;;;;30.70;62.50;;;;;;5149177;27;43001;-75
2023/07/17 12:19:51;;;;;;;;;;;30.70;61.90;;;;;;5149535;27;43084;-76
2023/07/17 12:22:17;;;;;;;;;;;30.70;62.40;;;;;;5149004;27;42817;-76
2023/07/17 12:24:43;;;;;;;;;;;30.70;61.90;;;;;;5148921;27;42929;-75
2023/07/17 12:27:08;;;;;;;;;;;30.70;62.50;;;;;;5148719;27;43414;-76
2023/07/17 12:29:34;;;;;;;;;;;30.70;62.50;;;;;;5149376;27;43029;-76
2023/07/17 12:31:59;;;;;;;;;;;30.70;61.90;;;;;;5148789;27;43984;-75
2023/07/17 12:34:25;;;;;;;;;;;30.70;62.60;;;;;;5148923;27;42840;-76
2023/07/17 12:36:50;;;;;;;;;;;30.70;62.50;;;;;;5147015;27;42903;-75
2023/07/17 12:39:16;;;;;;;;;;;30.70;62.50;;;;;;5148143;27;43017;-75
2023/07/17 12:41:42;;;;;;;;;;;30.70;62.50;;;;;;5148200;27;42942;-76
2023/07/17 12:44:08;;;;;;;;;;;30.90;62.20;;;;;;5148876;27;42795;-76
2023/07/17 12:46:33;;;;;;;;;;;30.50;61.80;;;;;;5147537;27;42721;-76
2023/07/17 12:48:59;;;;;;;;;;;30.70;62.50;;;;;;5149149;27;42946;-76
2023/07/17 12:51:25;;;;;;;;;;;30.70;62.00;;;;;;5148570;27;42781;-76
2023/07/17 12:53:51;;;;;;;;;;;30.70;62.00;;;;;;5148740;27;43002;-76
2023/07/17 12:56:16;;;;;;;;;;;30.70;62.00;;;;;;5148394;27;43022;-77
2023/07/17 12:58:42;;;;;;;;;;;30.70;62.60;;;;;;5148450;27;42930;-76
2023/07/17 13:01:07;;;;;;;;;;;30.60;62.50;;;;;;5148183;27;43572;-76
2023/07/17 13:03:33;;;;;;;;;;;30.60;62.00;;;;;;5148190;27;43073;-76
2023/07/17 13:05:58;;;;;;;;;;;30.60;62.00;;;;;;5147950;27;42954;-76
2023/07/17 13:08:24;;;;;;;;;;;30.70;62.00;;;;;;5147945;27;42935;-76
2023/07/17 13:10:50;;;;;;;;;;;30.70;62.60;;;;;;5147597;27;43020;-76
2023/07/17 13:13:15;;;;;;;;;;;30.70;62.10;;;;;;5148550;27;42872;-75
2023/07/17 13:15:41;;;;;;;;;;;30.70;62.70;;;;;;5148273;27;42864;-76
2023/07/17 13:18:06;;;;;;;;;;;30.70;62.00;;;;;;5148395;27;42869;-76
2023/07/17 13:20:31;;;;;;;;;;;30.70;62.60;;;;;;5148227;27;42893;-76
2023/07/17 13:22:57;;;;;;;;;;;30.70;62.60;;;;;;5147888;27;42972;-76
2023/07/17 13:25:23;;;;;;;;;;;30.60;62.00;;;;;;5147602;27;43737;-76
2023/07/17 13:27:48;;;;;;;;;;;30.70;62.60;;;;;;5148046;27;43137;-76
2023/07/17 13:30:14;;;;;;;;;;;30.70;62.60;;;;;;5148087;27;42928;-76
2023/07/17 13:32:39;;;;;;;;;;;30.70;62.00;;;;;;5147998;27;42829;-76
2023/07/17 13:35:05;;;;;;;;;;;30.70;62.70;;;;;;5147426;27;42954;-74
2023/07/17 13:37:30;;;;;;;;;;;30.70;62.60;;;;;;5147687;27;42863;-76
2023/07/17 13:39:56;;;;;;;;;;;30.60;62.00;;;;;;5147419;27;43531;-75
2023/07/17 13:42:22;;;;;;;;;;;30.60;62.60;;;;;;5147587;27;42919;-75
2023/07/17 13:44:47;;;;;;;;;;;30.70;62.60;;;;;;5147358;27;43418;-76
2023/07/17 13:47:13;;;;;;;;;;;30.70;62.00;;;;;;5147742;27;42916;-76
2023/07/17 13:49:38;;;;;;;;;;;30.70;62.00;;;;;;5147620;27;43393;-77
2023/07/17 13:52:04;;;;;;;;;;;30.70;62.00;;;;;;5147698;27;42977;-75
2023/07/17 13:54:30;;;;;;;;;;;30.70;62.00;;;;;;5146916;27;44079;-75
2023/07/17 13:56:55;;;;;;;;;;;30.70;62.60;;;;;;5147345;27;42994;-75
2023/07/17 13:59:21;;;;;;;;;;;30.70;62.00;;;;;;5147694;27;43459;-76
2023/07/17 14:01:47;;;;;;;;;;;30.70;62.00;;;;;;5147673;27;42829;-75
2023/07/17 14:04:12;;;;;;;;;;;30.70;62.70;;;;;;5147571;27;43219;-76
2023/07/17 14:06:38;;;;;;;;;;;30.70;62.10;;;;;;5147597;27;42884;-75
2023/07/17 14:09:03;;;;;;;;;;;30.70;62.60;;;;;;5147401;27;43266;-75